Terminal Aerodrome Forecast
Issued by NWS Cleveland, OH

Home | Current Version | Previous Version | Graphics & Text | Print | Product List | Glossary On
Versions: 1 2 3 4 5 6 7 8 9 10 11 12 13 14 15 16 17 18 19 20 21 22 23 24 25 26 27 28 29 30 31 32 33
000
FTUS41 KCLE 262200 AAB
TAFCLE
TAF AMD
KCLE 262219Z 2622/2724 21010KT P6SM VCSH OVC050
     FM270500 23003KT 5SM BR OVC025
     FM271500 22008KT P6SM OVC035
     FM271800 19012KT P6SM VCTS OVC035CB
      TEMPO 2719/2723 2SM -TSRA OVC015CB=

USA.gov is the U.S. government's official web portal to all federal, state and local government web resources and services.